Hlavní strana
METAR-TAF:

METAR-TAF

Letiště :

Aktau, Kazachstán

zeměpisná šířka: 43-52-12N, zeměpisná délka: 051-06E, výška: 22 m

Aktuální stav počasí

Zpráva byla vytvořena před 29 minutami, v 02:00 UTC
Východní vítr 6 kt
Teplota 7°C
Vlhkost vzduchu 93%
Tlak 1024 hPa
Viditelnost 10 km a více
Skoro jasno ve výšce 1800 ft
Polojasno ve výšce 4000 ft

METAR: UATE 190200Z 09003MPS 9999 FEW018 SCT040 07/06 Q1024 R12/0///70 NOSIG RMK QFE766/1022

Čas: 07:29 (02:29 UTC)

Předpověď počasí

Zpráva byla vytvořena před 3 hodinami a 27 minutami, v 23:02 UTC
Předpověď platná od 19 v 00 UTC do 19 v 24 UTC
vítr z různých směrů 4 kt
Viditelnost: 3000 m
Polojasno ve výšce 500 ft
kouřmo
Dočasný
od 19 v 00 UTC do 19 v 03 UTC
Viditelnost: 0500 m
ve výšce 200 ft
mlha
Změna
od 19 v 03 UTC do 19 v 05 UTC
Viditelnost 10 km a více
Polojasno ve výšce 1500 ft

TAF: UATE 182302Z 1900/1924 VRB02MPS 3000 BR SCT005 TX18/1909Z TN05/1902Z TEMPO 1900/1903 0500 FG VV002 BECMG 1903/1905 9999 NSW SCT015

Stav a předpovědi počasí z více než 4 000 letišť (zprávy METAR a TAF).

Červené a žluté tečky na mapě představují dostupné meteorologické stanice.

Když kurzor umístíte na tečku, zobrazí se název stanice.

Pak kliknutím zobrazíte stav a předpověď počasí.

Chcete-li změnit mapu, kliknutím na zelené tlačítko se znaménkem +mapu přiblížíte, kliknutím na zelené tlačítko se znaménkem – mapu oddálíte a kliknutím na zelené šipky přejdete na sousední mapy.


METAR-TAF: